Time;durP1;ratioP1;P1;durP2;ratioP2;P2;SDS_P1;SDS_P2;PMS_P1;PMS_P2;Temp;Humidity;BMP_temperature;BMP_pressure;BME280_temperature;BME280_humidity;BME280_pressure;Samples;Min_cycle;Max_cycle;Signal;HPM_P1;HPM_P2
2021/08/25 00:00:47;;;;;;;4.93;2.53;;;11.20;99.90;;;;;;4994538;28;20457;-71
2021/08/25 00:03:16;;;;;;;6.80;2.67;;;11.10;99.90;;;;;;4994840;28;20453;-70
2021/08/25 00:05:44;;;;;;;7.40;3.40;;;11.10;99.90;;;;;;4994546;28;20964;-71
2021/08/25 00:08:12;;;;;;;6.33;2.50;;;11.10;99.90;;;;;;4995531;28;20426;-70
2021/08/25 00:10:40;;;;;;;4.03;2.73;;;11.00;99.90;;;;;;4994794;28;20469;-70
2021/08/25 00:13:09;;;;;;;5.07;3.13;;;11.00;99.90;;;;;;4994517;28;20485;-71
2021/08/25 00:15:38;;;;;;;3.20;2.60;;;10.90;99.90;;;;;;4995074;28;20432;-70
2021/08/25 00:18:09;;;;;;;4.20;2.70;;;10.90;99.90;;;;;;4994135;28;20799;-72
2021/08/25 00:20:38;;;;;;;4.57;3.07;;;10.90;99.90;;;;;;4994300;28;20520;-71
2021/08/25 00:23:07;;;;;;;4.40;3.07;;;10.90;99.90;;;;;;4994169;28;20472;-70
2021/08/25 00:25:35;;;;;;;6.40;4.60;;;11.00;99.90;;;;;;4994269;28;20536;-72
2021/08/25 00:28:03;;;;;;;5.77;2.40;;;10.90;99.90;;;;;;4992870;28;20553;-70
2021/08/25 00:30:31;;;;;;;4.30;3.50;;;10.80;99.90;;;;;;4994285;28;20484;-71
2021/08/25 00:32:59;;;;;;;5.03;2.77;;;10.80;99.90;;;;;;4993808;28;20485;-71
2021/08/25 00:35:29;;;;;;;5.03;3.23;;;10.70;99.90;;;;;;4993962;28;20519;-71
2021/08/25 00:37:57;;;;;;;7.33;3.77;;;10.70;99.90;;;;;;4993790;28;20442;-70
2021/08/25 00:40:25;;;;;;;4.57;3.20;;;10.70;99.90;;;;;;4994021;28;20432;-70
2021/08/25 00:42:53;;;;;;;5.23;2.97;;;10.70;99.90;;;;;;4994067;28;20464;-71
2021/08/25 00:45:21;;;;;;;5.87;3.53;;;10.60;99.90;;;;;;4994008;28;20420;-71
2021/08/25 00:47:51;;;;;;;4.10;2.20;;;10.60;99.90;;;;;;4993724;28;20405;-72
2021/08/25 00:50:19;;;;;;;2.93;2.37;;;10.60;99.90;;;;;;4993661;28;20449;-71
2021/08/25 00:52:48;;;;;;;7.73;3.43;;;10.70;99.90;;;;;;4993650;28;20492;-72
2021/08/25 00:55:17;;;;;;;3.90;2.60;;;10.70;99.90;;;;;;4993706;28;20816;-72
2021/08/25 00:57:46;;;;;;;4.10;3.53;;;10.60;99.90;;;;;;4993261;28;20433;-72
2021/08/25 01:00:15;;;;;;;3.80;2.87;;;10.50;99.90;;;;;;4993677;28;20408;-72
2021/08/25 01:02:51;;;;;;;4.90;2.90;;;10.50;99.90;;;;;;4993097;28;20925;-71
2021/08/25 01:05:21;;;;;;;8.13;3.60;;;10.50;99.90;;;;;;4993647;28;21042;-71
2021/08/25 01:07:50;;;;;;;5.47;4.07;;;10.40;99.90;;;;;;4993353;28;20414;-70
2021/08/25 01:10:25;;;;;;;7.13;3.20;;;10.30;99.90;;;;;;4993725;28;20463;-71
2021/08/25 01:12:54;;;;;;;3.70;2.70;;;10.30;99.90;;;;;;4993388;28;20401;-71
2021/08/25 01:15:22;;;;;;;4.70;3.70;;;10.20;99.90;;;;;;4992697;28;20516;-71
2021/08/25 01:17:52;;;;;;;8.03;3.43;;;10.20;99.90;;;;;;4993319;28;20489;-71
2021/08/25 01:20:22;;;;;;;5.77;4.30;;;10.10;99.90;;;;;;4993134;28;20973;-71
2021/08/25 01:22:52;;;;;;;5.10;3.37;;;10.10;99.90;;;;;;4993156;28;20422;-71
2021/08/25 01:25:23;;;;;;;6.83;2.83;;;10.10;99.90;;;;;;4993073;28;20458;-70
2021/08/25 01:27:54;;;;;;;4.67;3.00;;;10.10;99.90;;;;;;4992939;28;20451;-70
2021/08/25 01:30:27;;;;;;;6.50;2.93;;;10.10;99.90;;;;;;4992920;28;20753;-70
2021/08/25 01:32:55;;;;;;;5.13;4.17;;;10.10;99.90;;;;;;4990802;28;20434;-72
2021/08/25 01:35:32;;;;;;;4.57;3.07;;;10.20;99.90;;;;;;4989824;28;20469;-71
2021/08/25 01:38:02;;;;;;;4.10;3.10;;;10.20;99.90;;;;;;4992401;28;20484;-71
2021/08/25 01:40:31;;;;;;;4.37;2.63;;;10.20;99.90;;;;;;4994613;28;20408;-72
2021/08/25 01:42:59;;;;;;;6.17;3.50;;;10.20;99.90;;;;;;4999339;28;20434;-71
2021/08/25 01:45:29;;;;;;;6.13;3.33;;;10.10;99.90;;;;;;5005048;28;20450;-70
2021/08/25 01:47:57;;;;;;;3.60;2.70;;;10.00;99.90;;;;;;4996888;28;20845;-70
2021/08/25 01:50:25;;;;;;;5.53;3.55;;;9.90;99.90;;;;;;4994279;28;20487;-71
2021/08/25 01:52:53;;;;;;;5.93;3.97;;;9.80;99.90;;;;;;4994260;28;20190;-71
2021/08/25 01:55:21;;;;;;;4.45;3.00;;;9.70;99.90;;;;;;4994309;28;20249;-70
2021/08/25 01:57:49;;;;;;;8.45;3.45;;;9.60;99.90;;;;;;5002748;28;20186;-71
2021/08/25 02:00:18;;;;;;;5.70;2.87;;;9.60;99.90;;;;;;5005647;28;20194;-71
2021/08/25 02:02:49;;;;;;;6.43;4.15;;;9.60;99.90;;;;;;5008336;28;20529;-71
2021/08/25 02:05:18;;;;;;;6.17;3.80;;;9.60;99.90;;;;;;5011938;28;20222;-70
2021/08/25 02:07:46;;;;;;;6.00;3.93;;;9.60;99.90;;;;;;5012911;28;20510;-70
2021/08/25 02:10:14;;;;;;;6.00;3.40;;;9.60;99.90;;;;;;5014072;28;20405;-70
2021/08/25 02:12:42;;;;;;;7.32;3.75;;;9.70;99.90;;;;;;5010307;28;20608;-71
2021/08/25 02:15:11;;;;;;;6.70;3.20;;;9.70;99.90;;;;;;4995257;28;20246;-71
2021/08/25 02:17:40;;;;;;;4.70;3.60;;;9.80;99.90;;;;;;4993137;28;20186;-71
2021/08/25 02:20:11;;;;;;;4.80;3.25;;;9.90;99.90;;;;;;4993053;28;20195;-71
2021/08/25 02:22:39;;;;;;;4.72;2.90;;;10.00;99.90;;;;;;4992648;28;20668;-70
2021/08/25 02:25:08;;;;;;;8.73;4.53;;;10.00;99.90;;;;;;4992696;28;20222;-70
2021/08/25 02:27:36;;;;;;;6.10;2.85;;;9.90;99.90;;;;;;4992368;28;20517;-71
2021/08/25 02:30:05;;;;;;;5.17;3.93;;;9.90;99.90;;;;;;4992498;28;20194;-70
2021/08/25 02:32:33;;;;;;;4.45;2.70;;;9.90;99.90;;;;;;4992940;28;21044;-72
2021/08/25 02:35:01;;;;;;;8.77;4.28;;;9.80;99.90;;;;;;4992514;28;20297;-71
2021/08/25 02:37:31;;;;;;;6.07;3.47;;;9.70;99.90;;;;;;4991300;28;20681;-71
2021/08/25 02:39:59;;;;;;;6.87;3.43;;;9.70;99.90;;;;;;4993228;28;20426;-72
2021/08/25 02:42:27;;;;;;;6.75;3.05;;;9.80;99.90;;;;;;4992851;28;20873;-71
2021/08/25 02:44:55;;;;;;;6.40;3.10;;;9.90;99.90;;;;;;4994023;28;20237;-71
2021/08/25 02:47:23;;;;;;;6.03;3.67;;;10.00;99.90;;;;;;4992601;28;20238;-72
2021/08/25 02:49:51;;;;;;;4.57;4.13;;;10.00;99.90;;;;;;4992670;28;20934;-71
2021/08/25 02:52:19;;;;;;;9.60;5.67;;;10.00;99.90;;;;;;4992612;28;20426;-72
2021/08/25 02:54:48;;;;;;;5.78;2.90;;;9.90;99.90;;;;;;4992674;28;20450;-72
2021/08/25 02:57:17;;;;;;;8.52;4.25;;;9.70;99.90;;;;;;4992271;28;20183;-71
2021/08/25 02:59:45;;;;;;;4.68;2.78;;;9.70;99.90;;;;;;4992027;28;20187;-71
2021/08/25 03:02:13;;;;;;;5.88;3.88;;;9.70;99.90;;;;;;4992280;28;20245;-71
2021/08/25 03:04:41;;;;;;;8.10;4.57;;;9.70;99.90;;;;;;4991812;28;20325;-71
2021/08/25 03:07:10;;;;;;;4.50;3.33;;;9.70;99.90;;;;;;4991929;28;20418;-71
2021/08/25 03:09:38;;;;;;;7.80;4.27;;;9.60;99.90;;;;;;4991192;28;20716;-71
2021/08/25 03:12:08;;;;;;;5.20;3.45;;;9.60;99.90;;;;;;4992314;28;20433;-71
2021/08/25 03:14:36;;;;;;;6.45;3.92;;;9.70;99.90;;;;;;4991625;28;20244;-71
2021/08/25 03:17:04;;;;;;;4.70;3.17;;;9.70;99.90;;;;;;4991969;28;20219;-71
2021/08/25 03:19:32;;;;;;;5.72;3.22;;;9.80;99.90;;;;;;4991849;28;20273;-72
2021/08/25 03:22:01;;;;;;;7.20;3.85;;;9.70;99.90;;;;;;4992071;28;20277;-71
2021/08/25 03:24:29;;;;;;;5.97;3.00;;;9.60;99.90;;;;;;4991761;28;20250;-71
2021/08/25 03:26:57;;;;;;;5.03;3.30;;;9.50;99.90;;;;;;4992566;28;20278;-71
2021/08/25 03:29:26;;;;;;;8.05;4.25;;;9.60;99.90;;;;;;4995173;28;20183;-72
2021/08/25 03:31:54;;;;;;;7.90;4.50;;;9.60;99.90;;;;;;4995047;28;20277;-69
2021/08/25 03:34:22;;;;;;;4.95;3.63;;;9.50;99.90;;;;;;4993334;28;20239;-70
2021/08/25 03:36:51;;;;;;;4.30;2.85;;;9.50;99.90;;;;;;4995189;28;20218;-70
2021/08/25 03:39:20;;;;;;;6.70;3.40;;;9.40;99.90;;;;;;4995219;28;20754;-70
2021/08/25 03:41:48;;;;;;;5.70;3.72;;;9.50;99.90;;;;;;4995104;28;20430;-71
2021/08/25 03:44:16;;;;;;;7.03;4.55;;;9.60;99.90;;;;;;4994932;28;20312;-72
2021/08/25 03:46:45;;;;;;;6.68;3.10;;;9.50;99.90;;;;;;4995002;28;20227;-71
2021/08/25 03:49:13;;;;;;;4.25;3.83;;;9.50;99.90;;;;;;4995139;28;20179;-71
2021/08/25 03:51:41;;;;;;;5.43;3.00;;;9.50;99.90;;;;;;4994138;28;20264;-71
2021/08/25 03:54:09;;;;;;;7.05;4.70;;;9.40;99.90;;;;;;4995014;28;20593;-71
2021/08/25 03:56:37;;;;;;;7.68;3.05;;;9.30;99.90;;;;;;4995573;28;20636;-71
2021/08/25 03:59:06;;;;;;;5.07;3.10;;;9.30;99.90;;;;;;4995403;28;20206;-70
2021/08/25 04:01:34;;;;;;;8.30;3.63;;;9.20;99.90;;;;;;4995304;28;20191;-72
2021/08/25 04:04:06;;;;;;;4.60;4.05;;;9.10;99.90;;;;;;4995613;28;20566;-71
2021/08/25 04:06:36;;;;;;;5.10;4.00;;;9.20;99.90;;;;;;4994981;28;20252;-71
2021/08/25 04:09:09;;;;;;;5.97;3.28;;;9.10;99.90;;;;;;4995495;28;20186;-71
2021/08/25 04:11:37;;;;;;;9.60;4.53;;;9.10;99.90;;;;;;4995121;28;20214;-71
2021/08/25 04:14:05;;;;;;;10.30;3.90;;;9.10;99.90;;;;;;4995298;28;20218;-71
2021/08/25 04:16:34;;;;;;;6.03;3.63;;;9.10;99.90;;;;;;4995184;28;20696;-70
2021/08/25 04:19:02;;;;;;;5.30;3.53;;;9.30;99.90;;;;;;4994672;28;20191;-71
2021/08/25 04:21:31;;;;;;;4.78;3.60;;;9.30;99.90;;;;;;4994594;28;20266;-71
2021/08/25 04:23:59;;;;;;;4.90;3.10;;;9.30;99.90;;;;;;4994164;28;20666;-71
2021/08/25 04:26:27;;;;;;;7.07;4.00;;;9.20;99.90;;;;;;4992808;28;20310;-71
2021/08/25 04:28:55;;;;;;;4.63;4.15;;;9.30;99.90;;;;;;4994241;28;20191;-72
2021/08/25 04:31:23;;;;;;;6.10;3.90;;;9.30;99.90;;;;;;4994112;28;20620;-71
2021/08/25 04:33:51;;;;;;;6.20;3.75;;;9.30;99.90;;;;;;4993965;28;20466;-71
2021/08/25 04:36:19;;;;;;;6.67;4.10;;;9.40;99.90;;;;;;4993888;28;20720;-72
2021/08/25 04:38:48;;;;;;;10.93;4.93;;;9.70;99.90;;;;;;4993546;28;20525;-71
2021/08/25 04:41:16;;;;;;;7.67;4.87;;;10.70;99.90;;;;;;4994064;28;20952;-70
2021/08/25 04:43:44;;;;;;;6.70;4.67;;;12.10;99.90;;;;;;4993324;28;20476;-71
2021/08/25 04:46:16;;;;;;;7.27;3.90;;;13.30;99.90;;;;;;4994031;28;20476;-71
2021/08/25 04:48:44;;;;;;;9.17;4.53;;;14.50;99.90;;;;;;4994183;28;20462;-70
2021/08/25 04:51:13;;;;;;;7.00;4.23;;;15.50;99.90;;;;;;4994146;28;20503;-71
2021/08/25 04:53:41;;;;;;;9.13;5.30;;;16.40;99.90;;;;;;4993509;28;20451;-70
2021/08/25 04:56:11;;;;;;;3.90;3.50;;;17.20;99.90;;;;;;4993434;28;20453;-71
2021/08/25 04:58:39;;;;;;;7.50;4.40;;;17.70;99.90;;;;;;4993293;28;20521;-72
2021/08/25 05:01:07;;;;;;;5.00;3.90;;;17.60;99.90;;;;;;4993461;28;20531;-73
2021/08/25 05:03:36;;;;;;;7.97;3.70;;;17.50;99.90;;;;;;4993054;28;20422;-73
2021/08/25 05:06:08;;;;;;;4.33;3.43;;;17.90;99.90;;;;;;4992969;28;20452;-72
2021/08/25 05:08:37;;;;;;;15.73;4.40;;;18.50;99.90;;;;;;4993292;28;20459;-73
2021/08/25 05:11:06;;;;;;;6.63;3.90;;;19.40;99.90;;;;;;4993420;28;20978;-73
2021/08/25 05:13:35;;;;;;;5.00;3.20;;;20.20;99.90;;;;;;4993319;28;20429;-73
2021/08/25 05:16:03;;;;;;;8.30;4.20;;;20.60;99.90;;;;;;4992876;28;20428;-74
2021/08/25 05:18:32;;;;;;;5.90;4.20;;;19.40;99.90;;;;;;4993248;28;20857;-74
2021/08/25 05:21:00;;;;;;;8.40;3.80;;;17.70;99.90;;;;;;4993139;28;20455;-71
2021/08/25 05:23:28;;;;;;;7.23;4.83;;;15.90;99.90;;;;;;4989345;28;20688;-72
2021/08/25 05:25:56;;;;;;;6.13;4.17;;;14.60;99.90;;;;;;4993044;28;20495;-71
2021/08/25 05:28:25;;;;;;;6.10;3.87;;;13.70;99.90;;;;;;4992587;28;20463;-71
2021/08/25 05:30:54;;;;;;;7.47;3.90;;;13.10;99.90;;;;;;4992284;28;20424;-71
2021/08/25 05:33:22;;;;;;;5.73;4.43;;;12.90;99.90;;;;;;4992733;28;20432;-71
2021/08/25 05:35:50;;;;;;;6.60;4.17;;;12.90;99.90;;;;;;4991987;28;20886;-72
2021/08/25 05:38:18;;;;;;;5.10;4.37;;;12.70;99.90;;;;;;4991709;28;20491;-71
2021/08/25 05:40:46;;;;;;;10.00;4.30;;;12.90;99.90;;;;;;4992356;28;20465;-71
2021/08/25 05:43:15;;;;;;;7.03;3.80;;;12.90;99.90;;;;;;4991813;28;20467;-72
2021/08/25 05:45:43;;;;;;;4.50;2.97;;;13.00;99.90;;;;;;4991929;28;20452;-71
2021/08/25 05:48:13;;;;;;;6.83;4.33;;;13.30;99.90;;;;;;4992184;28;20895;-72
2021/08/25 05:50:41;;;;;;;7.23;5.17;;;13.60;99.90;;;;;;4991323;28;20441;-71
2021/08/25 05:53:09;;;;;;;6.60;3.20;;;13.90;99.90;;;;;;4992782;28;20985;-70
2021/08/25 05:55:39;;;;;;;5.57;3.77;;;14.30;99.90;;;;;;4993496;28;20512;-72
2021/08/25 05:58:07;;;;;;;7.00;4.40;;;14.50;99.90;;;;;;4992014;28;21014;-70
2021/08/25 06:00:35;;;;;;;8.60;4.70;;;14.70;99.90;;;;;;4991709;28;20416;-70
2021/08/25 06:03:04;;;;;;;5.13;3.63;;;14.90;99.90;;;;;;4984584;28;20412;-71
2021/08/25 06:05:33;;;;;;;7.20;4.20;;;15.10;99.90;;;;;;4987825;28;20444;-73
2021/08/25 06:08:01;;;;;;;8.27;3.70;;;15.20;99.90;;;;;;4992030;28;20751;-70
2021/08/25 06:10:29;;;;;;;8.17;4.07;;;15.30;99.90;;;;;;4991994;28;20981;-71
2021/08/25 06:12:57;;;;;;;4.70;3.50;;;15.20;99.90;;;;;;4991661;28;20434;-70
2021/08/25 06:15:26;;;;;;;7.00;4.43;;;15.20;99.90;;;;;;5020109;23;20558;-66
2021/08/25 06:17:55;;;;;;;5.40;3.63;;;15.20;99.90;;;;;;5010160;28;20410;-65
2021/08/25 06:20:23;;;;;;;9.30;5.00;;;15.20;99.90;;;;;;5009981;28;20909;-66
2021/08/25 06:22:53;;;;;;;7.37;4.20;;;15.20;99.90;;;;;;5005465;28;20436;-67
2021/08/25 06:25:21;;;;;;;6.70;4.37;;;15.30;99.90;;;;;;4998633;28;20423;-66
2021/08/25 06:27:49;;;;;;;7.27;4.90;;;15.40;99.90;;;;;;4994623;28;20855;-65
2021/08/25 06:30:17;;;;;;;6.27;3.70;;;15.50;99.90;;;;;;5003754;28;20468;-66
2021/08/25 06:32:45;;;;;;;6.30;4.20;;;15.50;99.90;;;;;;4992440;28;20463;-67
2021/08/25 06:35:14;;;;;;;6.37;3.80;;;15.40;99.90;;;;;;4999066;28;20396;-66
2021/08/25 06:37:42;;;;;;;5.27;3.13;;;15.60;99.90;;;;;;4996295;28;20809;-66
2021/08/25 06:40:13;;;;;;;7.30;3.90;;;15.50;99.90;;;;;;4991118;28;20432;-65
2021/08/25 06:42:42;;;;;;;6.00;3.97;;;15.70;99.90;;;;;;5001206;28;20432;-67
2021/08/25 06:45:11;;;;;;;9.33;3.63;;;15.80;99.90;;;;;;4998683;28;20774;-65
2021/08/25 06:47:39;;;;;;;4.77;2.57;;;16.00;99.90;;;;;;5000702;28;20456;-66
2021/08/25 06:50:08;;;;;;;7.30;4.20;;;16.20;99.90;;;;;;5006124;28;20416;-67
2021/08/25 06:52:37;;;;;;;6.13;3.60;;;16.40;99.90;;;;;;4996686;28;20511;-65
2021/08/25 06:55:06;;;;;;;7.67;3.00;;;16.30;99.90;;;;;;4990201;28;20804;-65
2021/08/25 06:57:37;;;;;;;4.37;2.40;;;16.40;99.90;;;;;;4989945;28;20428;-66
2021/08/25 07:00:08;;;;;;;5.00;3.70;;;16.50;99.90;;;;;;4988516;28;20513;-66
2021/08/25 07:02:36;;;;;;;3.00;2.10;;;16.40;99.90;;;;;;4996460;28;20444;-66
2021/08/25 07:05:07;;;;;;;7.17;3.00;;;16.60;99.90;;;;;;5001028;28;20882;-66
2021/08/25 07:07:35;;;;;;;3.70;2.40;;;16.60;99.90;;;;;;5005626;28;20472;-67
2021/08/25 07:10:04;;;;;;;2.90;2.60;;;16.50;99.90;;;;;;4992902;28;20802;-66
2021/08/25 07:12:32;;;;;;;6.63;3.90;;;16.70;99.90;;;;;;4993178;28;20453;-65
2021/08/25 07:15:02;;;;;;;5.23;2.77;;;16.50;99.90;;;;;;4994672;28;20415;-66
2021/08/25 07:17:30;;;;;;;5.23;3.13;;;16.30;99.90;;;;;;5008025;28;20927;-65
2021/08/25 07:19:58;;;;;;;5.10;2.90;;;16.30;99.90;;;;;;5012624;28;20404;-65
2021/08/25 07:22:30;;;;;;;3.93;2.63;;;16.50;99.90;;;;;;5012603;28;20983;-66
2021/08/25 07:24:58;;;;;;;5.07;3.53;;;16.50;99.90;;;;;;5011851;28;20427;-66
2021/08/25 07:27:27;;;;;;;6.33;2.43;;;16.60;99.90;;;;;;5012573;28;20446;-67
2021/08/25 07:29:55;;;;;;;4.53;2.07;;;16.80;99.90;;;;;;5012090;28;20396;-65
2021/08/25 07:32:25;;;;;;;3.13;2.40;;;16.90;99.90;;;;;;5011774;28;20424;-66
2021/08/25 07:34:53;;;;;;;3.63;2.73;;;16.90;99.90;;;;;;4973335;28;20406;-66
2021/08/25 07:37:22;;;;;;;3.57;2.40;;;17.10;99.90;;;;;;4974676;28;20427;-66
2021/08/25 07:39:50;;;;;;;4.10;2.53;;;17.20;99.90;;;;;;4980507;28;20479;-70
2021/08/25 07:42:18;;;;;;;4.70;2.47;;;17.30;99.90;;;;;;5012387;28;20836;-66
2021/08/25 07:44:47;;;;;;;2.83;2.50;;;17.40;99.90;;;;;;5011868;28;20439;-66
2021/08/25 07:47:15;;;;;;;3.40;2.67;;;17.50;99.90;;;;;;5012685;28;20427;-66
2021/08/25 07:49:45;;;;;;;5.47;2.90;;;17.50;99.90;;;;;;5010997;28;20524;-67
2021/08/25 07:52:13;;;;;;;5.50;3.47;;;17.90;99.90;;;;;;5005698;28;21039;-66
2021/08/25 07:54:41;;;;;;;5.10;2.57;;;17.80;99.90;;;;;;5003013;28;20411;-66
2021/08/25 07:57:10;;;;;;;5.53;2.60;;;17.70;99.90;;;;;;5000202;28;20400;-67
2021/08/25 07:59:38;;;;;;;3.73;1.90;;;18.10;99.90;;;;;;5004377;28;20434;-65
2021/08/25 08:02:07;;;;;;;6.00;2.57;;;18.30;99.90;;;;;;4996484;28;20464;-66
2021/08/25 08:04:35;;;;;;;3.40;2.23;;;18.40;99.90;;;;;;4973119;28;20871;-66
2021/08/25 08:07:05;;;;;;;5.00;3.60;;;18.20;99.90;;;;;;4977740;28;20455;-66
2021/08/25 08:09:34;;;;;;;5.20;2.80;;;18.20;99.90;;;;;;5000038;28;20408;-66
2021/08/25 08:12:02;;;;;;;3.30;1.90;;;18.20;99.90;;;;;;4991915;28;20997;-64
2021/08/25 08:14:30;;;;;;;4.80;2.60;;;18.10;99.90;;;;;;5025908;28;20496;-66
2021/08/25 08:17:00;;;;;;;3.30;2.30;;;18.30;99.90;;;;;;5040518;28;20410;-66
2021/08/25 08:19:33;;;;;;;2.70;2.10;;;18.40;99.90;;;;;;5051441;28;20427;-65
2021/08/25 08:22:03;;;;;;;3.10;2.80;;;18.40;99.90;;;;;;5051494;28;20422;-66
2021/08/25 08:24:32;;;;;;;5.37;3.47;;;18.50;99.90;;;;;;5051318;28;20419;-65
2021/08/25 08:27:01;;;;;;;3.60;2.20;;;18.70;99.90;;;;;;5051091;28;20550;-66
2021/08/25 08:29:29;;;;;;;8.50;2.83;;;18.80;99.90;;;;;;5050968;28;20451;-65
2021/08/25 08:31:58;;;;;;;3.80;2.70;;;18.60;99.90;;;;;;5041903;28;20447;-65
2021/08/25 08:34:26;;;;;;;4.73;2.70;;;18.90;99.90;;;;;;5031179;28;20406;-66
2021/08/25 08:36:55;;;;;;;3.40;2.10;;;19.10;99.90;;;;;;5045269;28;20481;-67
2021/08/25 08:39:23;;;;;;;3.80;2.63;;;19.10;99.90;;;;;;5025731;28;20453;-67
2021/08/25 08:41:52;;;;;;;4.00;1.97;;;18.80;99.90;;;;;;5038217;28;20430;-65
2021/08/25 08:44:21;;;;;;;4.17;2.80;;;18.70;99.90;;;;;;5031042;28;20426;-65
2021/08/25 08:46:50;;;;;;;3.23;2.30;;;18.60;99.90;;;;;;5031643;28;20429;-66
2021/08/25 08:49:19;;;;;;;6.80;2.90;;;18.90;99.90;;;;;;5030993;28;20453;-65
2021/08/25 08:51:47;;;;;;;4.73;2.60;;;19.10;99.90;;;;;;5030868;28;20842;-67
2021/08/25 08:54:18;;;;;;;3.50;2.40;;;19.20;99.90;;;;;;5038445;28;20432;-66
2021/08/25 08:56:46;;;;;;;4.20;2.50;;;19.20;99.90;;;;;;5030935;28;20409;-66
2021/08/25 08:59:16;;;;;;;3.90;3.37;;;18.90;99.90;;;;;;5030572;28;20459;-67
2021/08/25 09:01:45;;;;;;;3.63;2.93;;;18.80;99.90;;;;;;5040617;28;20457;-66
2021/08/25 09:04:34;;;;;;;2.73;2.00;;;18.70;99.90;;;;;;5044002;28;20511;-66
2021/08/25 09:07:03;;;;;;;5.63;2.87;;;18.90;99.90;;;;;;5039016;28;20417;-65
2021/08/25 09:09:52;;;;;;;4.40;2.37;;;18.90;99.90;;;;;;5030040;28;20991;-67
2021/08/25 09:12:20;;;;;;;5.27;2.70;;;19.10;99.90;;;;;;5028832;28;20474;-67
2021/08/25 09:14:50;;;;;;;3.70;2.37;;;19.00;99.90;;;;;;5030937;28;20466;-67
2021/08/25 09:17:31;;;;;;;4.50;2.27;;;19.30;99.90;;;;;;5031322;28;20391;-67
2021/08/25 09:20:11;;;;;;;5.30;2.10;;;19.60;99.90;;;;;;5030499;28;20915;-66
2021/08/25 09:22:39;;;;;;;7.63;2.30;;;19.40;99.90;;;;;;5030620;28;20437;-66
2021/08/25 09:25:08;;;;;;;4.07;2.73;;;19.50;99.90;;;;;;5044909;28;20427;-66
2021/08/25 09:27:36;;;;;;;3.67;2.50;;;19.40;99.90;;;;;;5050379;28;20512;-67
2021/08/25 09:30:07;;;;;;;5.10;2.80;;;19.50;99.90;;;;;;5049587;28;20437;-65
2021/08/25 09:32:37;;;;;;;4.70;2.37;;;19.00;99.90;;;;;;5037054;28;20815;-66
2021/08/25 09:35:06;;;;;;;4.73;2.30;;;18.90;99.90;;;;;;5042276;28;20430;-66
2021/08/25 09:37:35;;;;;;;2.93;1.83;;;19.20;99.90;;;;;;5050329;28;20467;-66
2021/08/25 09:40:14;;;;;;;3.47;2.33;;;19.30;99.90;;;;;;5048323;28;20951;-66
2021/08/25 09:42:44;;;;;;;5.30;3.00;;;19.50;99.90;;;;;;5017549;28;20428;-66
2021/08/25 09:45:16;;;;;;;5.67;3.20;;;19.70;99.90;;;;;;5009860;28;20396;-68
2021/08/25 09:47:49;;;;;;;3.90;2.67;;;19.80;99.90;;;;;;5009874;28;20453;-67
2021/08/25 09:50:19;;;;;;;5.47;3.27;;;20.00;99.90;;;;;;5008997;28;20444;-67
2021/08/25 09:52:49;;;;;;;2.73;1.60;;;20.00;99.90;;;;;;5010603;28;20837;-65
2021/08/25 09:55:29;;;;;;;13.60;2.53;;;19.80;99.90;;;;;;5009787;28;20429;-66
2021/08/25 09:57:58;;;;;;;4.10;2.50;;;19.70;99.90;;;;;;5010412;28;20467;-67
2021/08/25 10:00:28;;;;;;;4.40;2.90;;;19.60;99.90;;;;;;5009889;28;20962;-66
2021/08/25 10:02:57;;;;;;;4.83;2.53;;;19.10;99.90;;;;;;5019536;28;20937;-66
2021/08/25 10:05:26;;;;;;;4.53;3.03;;;18.90;99.90;;;;;;5048995;28;20417;-66
2021/08/25 10:07:55;;;;;;;4.83;3.30;;;19.20;99.90;;;;;;5047894;28;20478;-65
2021/08/25 10:10:23;;;;;;;5.17;2.87;;;19.10;99.90;;;;;;5029494;28;20938;-66
2021/08/25 10:12:52;;;;;;;3.33;2.50;;;18.90;99.90;;;;;;5029888;28;20452;-66
2021/08/25 10:15:47;;;;;;;5.33;3.03;;;18.70;99.90;;;;;;5029287;28;20741;-67
2021/08/25 10:18:24;;;;;;;6.20;3.20;;;18.60;99.90;;;;;;5029505;28;20403;-65
2021/08/25 10:20:53;;;;;;;4.60;3.10;;;18.50;99.90;;;;;;5029746;28;20460;-69
2021/08/25 10:23:41;;;;;;;2.80;2.20;;;18.60;99.90;;;;;;5009994;28;20970;-65
2021/08/25 10:26:10;;;;;;;3.83;2.50;;;18.50;99.90;;;;;;5009643;28;20408;-66
2021/08/25 10:29:04;;;;;;;3.13;2.27;;;18.50;99.90;;;;;;5009524;28;20535;-66
2021/08/25 10:32:09;;;;;;;4.13;2.90;;;18.60;99.90;;;;;;5009616;28;20808;-66
2021/08/25 10:34:42;;;;;;;5.43;3.17;;;18.60;99.90;;;;;;5009634;28;20429;-67
2021/08/25 10:37:29;;;;;;;4.00;2.60;;;18.70;99.90;;;;;;5035725;28;20402;-68
2021/08/25 10:40:03;;;;;;;4.30;2.67;;;18.60;99.90;;;;;;5033210;28;20397;-64
2021/08/25 10:42:53;;;;;;;4.10;2.73;;;18.70;99.90;;;;;;5038364;28;20444;-66
2021/08/25 10:45:55;;;;;;;9.20;3.47;;;18.70;99.90;;;;;;5033191;28;20915;-67
2021/08/25 10:48:42;;;;;;;3.17;2.03;;;18.90;99.90;;;;;;5051647;28;20440;-66
2021/08/25 10:51:41;;;;;;;4.43;2.93;;;19.10;99.90;;;;;;5053392;28;20415;-66
2021/08/25 10:54:11;;;;;;;6.90;2.97;;;19.40;99.90;;;;;;5043656;28;20784;-67
2021/08/25 10:56:45;;;;;;;4.23;2.40;;;19.60;99.90;;;;;;5033442;28;20400;-65
2021/08/25 10:59:18;;;;;;;3.60;2.30;;;19.90;99.90;;;;;;5015696;28;20431;-68
2021/08/25 11:01:48;;;;;;;4.13;2.47;;;20.10;99.90;;;;;;5034638;28;20443;-67
2021/08/25 11:04:18;;;;;;;4.20;2.90;;;20.30;99.90;;;;;;5033437;28;20438;-67
2021/08/25 11:06:52;;;;;;;4.07;2.60;;;20.00;99.90;;;;;;5032031;28;20534;-68
2021/08/25 11:09:24;;;;;;;3.70;2.73;;;19.80;99.90;;;;;;5033526;28;20715;-66
2021/08/25 11:11:55;;;;;;;5.43;3.80;;;19.60;99.90;;;;;;5034297;28;20475;-68
2021/08/25 11:14:26;;;;;;;6.03;2.30;;;19.40;99.90;;;;;;5033466;28;20424;-68
2021/08/25 11:16:57;;;;;;;3.40;2.87;;;19.10;99.90;;;;;;5033521;28;20781;-67
2021/08/25 11:19:32;;;;;;;5.50;2.83;;;19.20;99.90;;;;;;5033678;28;20406;-66
2021/08/25 11:22:03;;;;;;;9.63;4.80;;;19.60;99.90;;;;;;5033834;28;20929;-66
2021/08/25 11:24:40;;;;;;;5.50;2.90;;;19.90;99.90;;;;;;5033787;28;20428;-66
2021/08/25 11:27:23;;;;;;;6.77;2.47;;;20.00;99.90;;;;;;5033635;28;20426;-68
2021/08/25 11:30:15;;;;;;;10.27;3.40;;;20.00;99.90;;;;;;5033540;28;20831;-68
2021/08/25 11:32:55;;;;;;;3.73;2.60;;;19.90;99.90;;;;;;5015748;28;20459;-67
2021/08/25 11:35:29;;;;;;;6.93;2.60;;;20.10;99.90;;;;;;5033284;28;20406;-66
2021/08/25 11:38:01;;;;;;;4.20;2.57;;;20.40;99.90;;;;;;5033719;28;20483;-66
2021/08/25 11:40:30;;;;;;;6.10;3.57;;;20.50;99.90;;;;;;5033232;28;20420;-67
2021/08/25 11:43:05;;;;;;;6.73;3.80;;;20.40;99.90;;;;;;5015431;28;20790;-68
2021/08/25 11:45:34;;;;;;;7.23;4.23;;;20.50;99.90;;;;;;5032661;28;20438;-67
2021/08/25 11:48:03;;;;;;;5.20;2.90;;;20.50;99.90;;;;;;5032352;28;20780;-68
2021/08/25 11:50:33;;;;;;;4.07;3.10;;;20.60;99.90;;;;;;5015311;28;20446;-67
2021/08/25 11:53:03;;;;;;;4.37;3.23;;;20.40;99.90;;;;;;5039269;28;20426;-67
2021/08/25 11:55:36;;;;;;;5.10;2.70;;;20.00;99.90;;;;;;5052525;28;20419;-67
2021/08/25 11:58:04;;;;;;;5.10;3.70;;;20.40;99.90;;;;;;5041434;28;20432;-66
2021/08/25 12:00:40;;;;;;;6.80;3.70;;;20.70;99.90;;;;;;5033044;28;20434;-67
2021/08/25 12:03:11;;;;;;;4.40;2.57;;;21.10;99.90;;;;;;5013302;28;20871;-67
2021/08/25 12:05:41;;;;;;;6.13;3.47;;;21.50;99.90;;;;;;5034433;28;20427;-67
2021/08/25 12:08:13;;;;;;;5.37;2.60;;;21.70;99.90;;;;;;5038770;28;20410;-66
2021/08/25 12:10:42;;;;;;;5.30;3.30;;;22.00;99.90;;;;;;5032185;28;21058;-66
2021/08/25 12:13:12;;;;;;;4.03;2.70;;;22.30;99.90;;;;;;5041797;28;20425;-65
2021/08/25 12:15:49;;;;;;;8.17;3.40;;;22.30;99.90;;;;;;5052407;28;20531;-68
2021/08/25 12:18:20;;;;;;;5.10;3.00;;;22.40;99.90;;;;;;5049707;28;20807;-65
2021/08/25 12:20:50;;;;;;;3.40;2.60;;;22.40;99.90;;;;;;5032272;28;20424;-67
2021/08/25 12:23:22;;;;;;;5.03;4.00;;;22.30;99.90;;;;;;5050611;28;20434;-66
2021/08/25 12:25:52;;;;;;;4.87;2.73;;;22.10;99.90;;;;;;5051517;28;20423;-67
2021/08/25 12:28:34;;;;;;;4.37;3.43;;;21.90;99.90;;;;;;5047166;28;20452;-66
2021/08/25 12:31:21;;;;;;;4.07;3.13;;;21.30;99.90;;;;;;5027651;28;20826;-67
2021/08/25 12:33:54;;;;;;;8.30;3.43;;;21.00;99.90;;;;;;5030320;28;20754;-67
2021/08/25 12:36:24;;;;;;;4.03;2.57;;;21.30;99.90;;;;;;5035515;28;20442;-66
2021/08/25 12:38:56;;;;;;;5.97;4.07;;;22.10;99.90;;;;;;5043618;28;20789;-65
2021/08/25 12:41:25;;;;;;;4.80;3.17;;;22.80;99.90;;;;;;5040147;28;20448;-66
2021/08/25 12:43:56;;;;;;;4.23;2.80;;;23.00;99.90;;;;;;5038567;28;20430;-67
2021/08/25 12:46:25;;;;;;;4.47;3.23;;;23.20;99.90;;;;;;5032693;28;20801;-69
2021/08/25 12:48:53;;;;;;;4.97;2.33;;;23.00;99.90;;;;;;5051783;28;20419;-67
2021/08/25 12:51:22;;;;;;;4.73;2.90;;;22.70;99.90;;;;;;5050859;28;20449;-65
2021/08/25 12:53:52;;;;;;;5.97;3.60;;;22.50;99.90;;;;;;5051098;28;20442;-65
2021/08/25 12:56:22;;;;;;;7.03;3.53;;;22.00;99.90;;;;;;5050371;28;20423;-66
2021/08/25 12:58:51;;;;;;;6.23;2.97;;;21.70;99.90;;;;;;5041877;28;20447;-67
2021/08/25 13:01:19;;;;;;;4.47;3.13;;;21.60;99.90;;;;;;5029859;28;20443;-66
2021/08/25 13:03:50;;;;;;;4.30;3.00;;;21.70;99.90;;;;;;5025781;28;20407;-66